createdAt,value
2018-11-11T00:01:03.953Z,23.33
2018-11-11T00:03:35.370Z,22.17
2018-11-11T00:06:06.424Z,21.07
2018-11-11T00:08:37.932Z,21.67
2018-11-11T00:13:39.317Z,21.63
2018-11-11T00:16:10.609Z,21.93
2018-11-11T00:18:43.180Z,21.57
2018-11-11T00:21:14.641Z,20.70
2018-11-11T00:23:45.576Z,23.17
2018-11-11T00:26:18.091Z,21.73
2018-11-11T00:28:49.082Z,22.53
2018-11-11T00:31:20.498Z,21.93
2018-11-11T00:33:52.852Z,22.60
2018-11-11T00:36:27.448Z,20.60
2018-11-11T00:38:59.882Z,21.63
2018-11-11T00:41:31.571Z,20.20
2018-11-11T00:44:04.409Z,21.33
2018-11-11T00:46:36.814Z,21.20
2018-11-11T00:49:11.437Z,21.37
2018-11-11T00:51:42.261Z,21.83
2018-11-11T00:54:14.272Z,22.17
2018-11-11T00:56:48.021Z,22.80
2018-11-11T00:59:18.964Z,21.37
2018-11-11T01:01:54.061Z,22.50
2018-11-11T01:04:26.658Z,22.90
2018-11-11T01:07:00.925Z,18.73
2018-11-11T01:09:33.860Z,18.27
2018-11-11T01:12:05.359Z,20.30
2018-11-11T01:14:40.014Z,19.10
2018-11-11T01:17:13.193Z,19.43
2018-11-11T01:19:44.578Z,20.60
2018-11-11T01:22:17.766Z,22.63
2018-11-11T01:24:50.312Z,20.93
2018-11-11T01:27:25.561Z,20.63
2018-11-11T01:29:57.936Z,18.63
2018-11-11T01:32:32.597Z,18.77
2018-11-11T01:35:07.304Z,21.23
2018-11-11T01:37:39.506Z,20.40
2018-11-11T01:40:12.058Z,17.97
2018-11-11T01:42:44.775Z,18.80
2018-11-11T01:45:19.423Z,21.17
2018-11-11T01:47:51.165Z,21.00
2018-11-11T01:50:23.435Z,20.07
2018-11-11T01:52:56.644Z,20.63
2018-11-11T01:55:28.335Z,20.13
2018-11-11T01:58:00.366Z,20.57
2018-11-11T02:00:33.870Z,22.33
2018-11-11T02:03:12.376Z,21.20
2018-11-11T02:05:43.961Z,19.47
2018-11-11T02:08:19.542Z,19.37
2018-11-11T02:10:50.629Z,18.50
2018-11-11T02:16:47.970Z,21.47
2018-11-11T02:19:21.172Z,20.70
2018-11-11T02:21:54.365Z,19.50
2018-11-11T02:24:26.041Z,19.33
2018-11-11T02:26:56.921Z,19.30
2018-11-11T02:29:30.331Z,19.00
2018-11-11T02:32:01.546Z,19.27
2018-11-11T02:34:33.567Z,18.83
2018-11-11T02:37:06.851Z,18.40
2018-11-11T02:39:39.160Z,18.53
2018-11-11T02:42:10.605Z,20.17
2018-11-11T02:44:42.653Z,18.60
2018-11-11T02:47:18.930Z,18.03
2018-11-11T02:49:51.372Z,18.90
2018-11-11T02:52:22.404Z,21.57
2018-11-11T02:54:56.358Z,20.73
2018-11-11T02:57:28.075Z,21.63
2018-11-11T02:59:59.991Z,20.67
2018-11-11T03:02:33.169Z,19.33
2018-11-11T03:05:04.526Z,19.87
2018-11-11T03:07:43.899Z,20.47
2018-11-11T03:10:17.988Z,20.47
2018-11-11T03:12:51.011Z,17.50
2018-11-11T03:15:25.534Z,20.63
2018-11-11T03:17:56.292Z,20.63
2018-11-11T03:20:28.754Z,20.07
2018-11-11T03:23:04.049Z,20.27
2018-11-11T03:25:36.715Z,18.60
2018-11-11T03:28:07.786Z,20.53
2018-11-11T03:30:44.804Z,19.03
2018-11-11T03:33:17.263Z,22.10
2018-11-11T03:35:48.023Z,23.30
2018-11-11T03:38:20.279Z,20.93
2018-11-11T03:40:52.861Z,20.30
2018-11-11T03:43:24.733Z,20.20
2018-11-11T03:45:59.674Z,23.60
2018-11-11T03:48:32.128Z,20.77
2018-11-11T03:51:04.381Z,19.90
2018-11-11T03:53:39.376Z,21.67
2018-11-11T03:56:13.839Z,22.07
2018-11-11T03:58:45.777Z,22.40
2018-11-11T04:01:19.092Z,21.27
2018-11-11T04:03:52.877Z,22.67
2018-11-11T04:06:25.934Z,20.67
2018-11-11T04:08:58.725Z,20.60
2018-11-11T04:11:32.285Z,21.73
2018-11-11T04:14:03.874Z,21.13
2018-11-11T04:16:37.511Z,22.00
2018-11-11T04:19:09.391Z,20.20
2018-11-11T04:21:40.181Z,21.93
2018-11-11T04:24:11.913Z,20.90
2018-11-11T04:26:45.853Z,21.23
2018-11-11T04:29:17.042Z,21.33
2018-11-11T04:31:50.479Z,20.03
2018-11-11T04:34:22.251Z,21.83
2018-11-11T04:36:54.677Z,23.43
2018-11-11T04:39:25.822Z,21.97
2018-11-11T04:41:58.303Z,20.77
2018-11-11T04:44:29.859Z,20.83
2018-11-11T04:47:02.729Z,20.27
2018-11-11T04:49:33.575Z,22.13
2018-11-11T04:52:05.441Z,20.73
2018-11-11T04:54:37.393Z,22.13
2018-11-11T04:57:08.501Z,21.63
2018-11-11T04:59:40.122Z,21.20
2018-11-11T05:02:15.406Z,21.67
2018-11-11T05:04:49.477Z,23.10
2018-11-11T05:07:25.525Z,22.47
2018-11-11T05:09:58.534Z,21.80
2018-11-11T05:12:30.976Z,23.90
2018-11-11T05:15:03.466Z,20.63
2018-11-11T05:17:34.979Z,21.23
2018-11-11T05:20:06.785Z,21.97
2018-11-11T05:22:37.591Z,23.70
2018-11-11T05:25:12.137Z,22.80
2018-11-11T05:27:45.928Z,23.93
2018-11-11T05:30:18.336Z,21.87
2018-11-11T05:32:51.828Z,21.13
2018-11-11T05:35:24.343Z,24.43
2018-11-11T05:37:56.389Z,24.10
2018-11-11T05:40:28.076Z,23.10
2018-11-11T05:43:00.754Z,22.07
2018-11-11T05:45:32.745Z,22.63
2018-11-11T05:48:04.532Z,22.60
2018-11-11T05:50:38.763Z,21.73
2018-11-11T05:53:10.559Z,23.17
2018-11-11T05:55:42.785Z,20.60
2018-11-11T05:58:14.243Z,22.33
2018-11-11T06:00:46.287Z,22.03
2018-11-11T06:03:17.433Z,23.17
2018-11-11T06:05:52.629Z,22.90
2018-11-11T06:08:23.595Z,23.33
2018-11-11T06:10:55.828Z,23.53
2018-11-11T06:13:26.910Z,24.67
2018-11-11T06:15:58.094Z,25.37
2018-11-11T06:18:29.204Z,24.23
2018-11-11T06:21:00.499Z,24.70
2018-11-11T06:23:32.398Z,24.97
2018-11-11T06:26:04.393Z,24.77
2018-11-11T06:28:35.726Z,24.17
2018-11-11T06:31:06.810Z,23.20
2018-11-11T06:33:39.059Z,23.37
2018-11-11T06:36:11.013Z,22.33
2018-11-11T06:38:43.690Z,22.83
2018-11-11T06:41:15.870Z,21.97
2018-11-11T06:43:46.798Z,22.90
2018-11-11T06:46:18.119Z,22.10
2018-11-11T06:48:49.256Z,22.63
2018-11-11T06:51:22.302Z,23.43
2018-11-11T06:53:53.222Z,23.23
2018-11-11T06:56:24.136Z,22.03
2018-11-11T06:58:58.305Z,21.90
2018-11-11T07:01:29.417Z,19.73
2018-11-11T07:04:01.977Z,22.60
2018-11-11T07:06:34.268Z,22.10
2018-11-11T07:09:08.909Z,21.17
2018-11-11T07:11:41.917Z,21.43
2018-11-11T07:14:14.007Z,22.43
2018-11-11T07:16:44.997Z,22.30
2018-11-11T07:19:16.275Z,24.23
2018-11-11T07:21:47.237Z,23.70
2018-11-11T07:24:19.430Z,23.80
2018-11-11T07:26:50.803Z,23.93
2018-11-11T07:29:23.133Z,24.50
2018-11-11T07:31:55.120Z,24.27
2018-11-11T07:34:26.671Z,24.30
2018-11-11T07:37:02.382Z,23.80
2018-11-11T07:39:34.674Z,25.50
2018-11-11T07:42:06.965Z,24.60
2018-11-11T07:44:39.229Z,24.27
2018-11-11T07:47:12.974Z,24.73
2018-11-11T07:49:48.470Z,22.57
2018-11-11T07:52:21.197Z,24.37
2018-11-11T07:54:57.114Z,24.23
2018-11-11T07:57:28.452Z,23.67
2018-11-11T08:02:42.666Z,21.90
2018-11-11T08:05:14.053Z,24.17
2018-11-11T08:07:46.442Z,23.67
2018-11-11T08:10:33.885Z,23.60
2018-11-11T08:13:08.325Z,22.50
2018-11-11T08:15:42.730Z,23.83
2018-11-11T08:18:19.980Z,22.40
2018-11-11T08:20:52.766Z,23.63
2018-11-11T08:23:28.793Z,22.27
2018-11-11T08:26:02.124Z,22.87
2018-11-11T08:28:34.102Z,23.20
2018-11-11T08:31:06.434Z,22.83
2018-11-11T08:33:47.181Z,23.07
2018-11-11T08:36:19.980Z,22.23
2018-11-11T08:38:53.754Z,23.17
2018-11-11T08:41:24.888Z,22.27
2018-11-11T08:43:55.835Z,23.00
2018-11-11T08:46:30.453Z,23.13
2018-11-11T08:49:02.139Z,21.80
2018-11-11T08:51:36.556Z,22.07
2018-11-11T08:54:08.985Z,22.73
2018-11-11T08:56:40.765Z,23.30
2018-11-11T08:59:14.464Z,22.90
2018-11-11T09:01:50.180Z,22.63
2018-11-11T09:04:23.277Z,22.40
2018-11-11T09:06:55.372Z,22.17
2018-11-11T09:09:30.870Z,23.97
2018-11-11T09:12:04.191Z,22.27
2018-11-11T09:14:35.875Z,23.53
2018-11-11T09:17:08.298Z,21.67
2018-11-11T09:19:42.539Z,21.40
2018-11-11T09:22:21.993Z,22.87
2018-11-11T09:24:55.015Z,22.27
2018-11-11T09:27:26.868Z,21.83
2018-11-11T09:29:58.029Z,21.03
2018-11-11T09:32:29.115Z,20.70
2018-11-11T09:35:00.757Z,21.00
2018-11-11T09:37:31.790Z,20.87
2018-11-11T09:40:06.157Z,21.17
2018-11-11T09:42:39.999Z,20.57
2018-11-11T09:45:15.083Z,21.00
2018-11-11T09:47:48.712Z,20.40
2018-11-11T09:50:21.850Z,21.00
2018-11-11T09:52:54.215Z,20.03
2018-11-11T09:55:27.683Z,20.70
2018-11-11T09:58:00.758Z,20.73
2018-11-11T10:00:32.244Z,21.50
2018-11-11T10:09:29.351Z,20.17
2018-11-11T10:12:04.952Z,20.30
2018-11-11T10:15:38.513Z,19.63
2018-11-11T10:18:47.870Z,20.97
2018-11-11T10:23:27.885Z,19.80
2018-11-11T10:26:07.217Z,19.53
2018-11-11T10:28:47.634Z,19.87
2018-11-11T10:31:30.261Z,19.27
2018-11-11T10:34:08.375Z,19.00
2018-11-11T10:36:45.298Z,19.50
2018-11-11T10:39:27.016Z,19.40
2018-11-11T10:42:07.871Z,20.20
2018-11-11T10:44:51.833Z,19.40
2018-11-11T10:47:27.337Z,18.67
2018-11-11T10:50:00.832Z,19.17
2018-11-11T10:52:33.071Z,18.10
2018-11-11T10:55:07.750Z,19.40
2018-11-11T10:57:39.353Z,19.60
2018-11-11T11:00:16.138Z,18.80
2018-11-11T11:02:58.085Z,19.67
2018-11-11T11:05:32.658Z,20.20
2018-11-11T11:08:05.471Z,18.87
2018-11-11T11:10:36.702Z,20.10
2018-11-11T11:13:08.156Z,19.60
2018-11-11T11:15:40.847Z,19.10
2018-11-11T11:18:12.758Z,20.03
2018-11-11T11:20:44.336Z,18.97
2018-11-11T11:23:15.733Z,17.90
2018-11-11T11:25:48.390Z,18.50
2018-11-11T11:28:19.254Z,18.70
2018-11-11T11:30:52.069Z,18.00
2018-11-11T11:33:25.318Z,18.83
2018-11-11T11:35:57.302Z,17.80
2018-11-11T11:38:28.237Z,17.37
2018-11-11T11:40:59.202Z,16.70
2018-11-11T11:43:30.961Z,19.43
2018-11-11T11:46:03.705Z,16.57
2018-11-11T11:48:35.276Z,17.40
2018-11-11T11:51:08.268Z,16.40
2018-11-11T11:53:43.052Z,18.70
2018-11-11T11:56:15.313Z,18.13
2018-11-11T11:58:47.825Z,18.37
2018-11-11T12:01:20.421Z,18.10
2018-11-11T12:03:53.404Z,16.23
2018-11-11T12:06:26.105Z,17.47
2018-11-11T12:08:59.569Z,14.07
2018-11-11T12:11:32.269Z,15.93
2018-11-11T12:14:05.471Z,15.10
2018-11-11T12:16:38.211Z,15.03
2018-11-11T12:19:14.605Z,14.70
2018-11-11T12:21:49.152Z,15.23
2018-11-11T12:24:22.802Z,15.13
2018-11-11T12:26:56.977Z,14.77
2018-11-11T12:29:29.476Z,14.77
2018-11-11T12:32:02.852Z,15.63
2018-11-11T12:34:40.865Z,15.97
2018-11-11T12:37:14.269Z,16.20
2018-11-11T12:39:46.453Z,15.97
2018-11-11T12:42:23.823Z,16.00
2018-11-11T12:44:54.774Z,15.00
2018-11-11T12:47:25.777Z,13.63
2018-11-11T12:50:02.795Z,13.17
2018-11-11T12:52:36.724Z,12.43
2018-11-11T12:55:07.872Z,12.00
2018-11-11T12:57:40.819Z,11.33
2018-11-11T13:00:14.780Z,12.60
2018-11-11T13:02:45.932Z,11.67
2018-11-11T13:05:17.612Z,12.20
2018-11-11T13:07:48.988Z,11.33
2018-11-11T13:10:22.135Z,10.43
2018-11-11T13:12:53.756Z,10.73
2018-11-11T13:15:25.402Z,10.17
2018-11-11T13:17:56.886Z,9.77
2018-11-11T13:20:27.881Z,10.90
2018-11-11T13:22:59.284Z,9.73
2018-11-11T13:25:32.210Z,47.63
2018-11-11T13:28:04.509Z,10.60
2018-11-11T13:30:36.013Z,10.03
2018-11-11T13:33:08.253Z,9.80
2018-11-11T13:35:40.542Z,10.17
2018-11-11T13:38:12.040Z,10.47
2018-11-11T13:40:43.114Z,10.53
2018-11-11T13:43:15.889Z,10.73
2018-11-11T13:45:46.918Z,10.63
2018-11-11T13:48:17.642Z,11.27
2018-11-11T13:50:49.697Z,12.43
2018-11-11T13:53:21.139Z,15.97
2018-11-11T13:55:53.312Z,15.53
2018-11-11T13:58:24.642Z,16.73
2018-11-11T14:00:55.505Z,15.37
2018-11-11T14:03:27.091Z,17.00
2018-11-11T14:06:01.111Z,18.57
2018-11-11T14:08:34.323Z,18.77
2018-11-11T14:11:07.965Z,16.57
2018-11-11T14:13:39.688Z,17.43
2018-11-11T14:16:12.007Z,17.03
2018-11-11T14:18:43.150Z,18.43
2018-11-11T14:21:14.498Z,19.47
2018-11-11T14:23:47.677Z,19.77
2018-11-11T14:26:18.966Z,20.53
2018-11-11T14:28:50.811Z,23.00
2018-11-11T14:31:22.224Z,22.50
2018-11-11T14:33:54.587Z,23.20
2018-11-11T14:36:29.649Z,21.97
2018-11-11T14:39:00.954Z,22.20
2018-11-11T14:41:33.208Z,22.87
2018-11-11T14:44:04.965Z,21.10
2018-11-11T14:46:38.216Z,22.63
2018-11-11T14:49:10.864Z,22.80
2018-11-11T14:51:42.532Z,23.00
2018-11-11T14:54:13.550Z,23.83
2018-11-11T14:56:44.894Z,21.57
2018-11-11T14:59:16.936Z,21.13
2018-11-11T15:01:50.041Z,22.10
2018-11-11T15:04:22.484Z,22.77
2018-11-11T15:06:54.837Z,22.13
2018-11-11T15:09:25.992Z,24.00
2018-11-11T15:11:57.755Z,22.80
2018-11-11T15:14:30.077Z,23.43
2018-11-11T15:17:01.084Z,23.40
2018-11-11T15:19:33.877Z,22.90
2018-11-11T15:22:10.717Z,23.27
2018-11-11T15:24:42.373Z,22.27
2018-11-11T15:27:15.502Z,23.43
2018-11-11T15:29:48.389Z,22.70
2018-11-11T15:32:20.272Z,23.90
2018-11-11T15:34:51.593Z,22.87
2018-11-11T15:37:22.537Z,23.17
2018-11-11T15:39:54.157Z,23.03
2018-11-11T15:42:25.166Z,24.33
2018-11-11T15:44:57.128Z,22.33
2018-11-11T15:47:27.921Z,24.37
2018-11-11T15:49:59.522Z,23.50
2018-11-11T15:52:30.742Z,23.93
2018-11-11T15:55:02.070Z,24.70
2018-11-11T15:57:33.624Z,24.97
2018-11-11T16:00:06.326Z,24.70
2018-11-11T16:02:37.276Z,24.37
2018-11-11T16:05:09.442Z,25.83
2018-11-11T16:07:40.963Z,25.03
2018-11-11T16:10:15.109Z,24.77
2018-11-11T16:15:54.868Z,25.40
2018-11-11T16:18:26.506Z,27.10
2018-11-11T16:20:58.497Z,28.27
2018-11-11T16:23:29.475Z,29.67
2018-11-11T16:26:00.546Z,27.23
2018-11-11T16:28:32.353Z,25.07
2018-11-11T16:31:04.719Z,25.60
2018-11-11T16:33:37.722Z,24.07
2018-11-11T16:36:09.749Z,26.10
2018-11-11T16:38:40.863Z,25.37
2018-11-11T16:41:13.150Z,25.57
2018-11-11T16:43:45.461Z,25.63
2018-11-11T16:46:16.505Z,25.53
2018-11-11T16:48:47.026Z,26.37
2018-11-11T16:51:18.225Z,26.50
2018-11-11T16:53:48.802Z,26.80
2018-11-11T16:56:21.869Z,25.53
2018-11-11T16:58:52.416Z,29.13
2018-11-11T17:01:25.753Z,27.93
2018-11-11T17:03:56.349Z,27.60
2018-11-11T17:06:26.920Z,30.77
2018-11-11T17:08:58.010Z,33.33
2018-11-11T17:11:29.806Z,34.47
2018-11-11T17:14:01.324Z,35.47
2018-11-11T17:16:32.897Z,37.20
2018-11-11T17:19:04.122Z,36.47
2018-11-11T17:21:35.302Z,41.87
2018-11-11T17:24:06.790Z,41.03
2018-11-11T17:26:37.603Z,38.30
2018-11-11T17:29:10.275Z,36.83
2018-11-11T17:31:41.202Z,33.67
2018-11-11T17:34:12.473Z,30.80
2018-11-11T17:36:43.772Z,30.60
2018-11-11T17:39:15.835Z,31.67
2018-11-11T17:41:47.661Z,27.70
2018-11-11T17:44:19.312Z,29.00
2018-11-11T17:46:51.137Z,31.80
2018-11-11T17:49:23.705Z,30.80
2018-11-11T17:51:54.488Z,31.73
2018-11-11T17:54:25.442Z,30.10
2018-11-11T17:56:56.446Z,28.83
2018-11-11T17:59:27.466Z,29.03
2018-11-11T18:04:41.613Z,30.57
2018-11-11T18:07:13.388Z,30.67
2018-11-11T18:09:44.085Z,29.93
2018-11-11T18:12:16.186Z,30.63
2018-11-11T18:14:47.460Z,30.73
2018-11-11T18:17:18.979Z,30.53
2018-11-11T18:19:50.188Z,29.80
2018-11-11T18:22:21.273Z,31.47
2018-11-11T18:24:52.477Z,30.10
2018-11-11T18:27:23.767Z,30.63
2018-11-11T18:29:55.589Z,28.87
2018-11-11T18:32:27.660Z,29.13
2018-11-11T18:35:00.674Z,28.90
2018-11-11T18:37:32.594Z,26.80
2018-11-11T18:40:04.233Z,27.23
2018-11-11T18:42:35.531Z,25.10
2018-11-11T18:45:08.665Z,25.77
2018-11-11T18:47:39.581Z,26.93
2018-11-11T18:50:15.709Z,26.33
2018-11-11T18:52:46.458Z,26.20
2018-11-11T18:55:17.663Z,25.77
2018-11-11T18:57:49.514Z,26.50
2018-11-11T19:00:22.048Z,26.60
2018-11-11T19:02:55.419Z,26.27
2018-11-11T19:05:27.535Z,27.47
2018-11-11T19:08:00.116Z,25.53
2018-11-11T19:10:32.895Z,26.10
2018-11-11T19:13:05.976Z,24.70
2018-11-11T19:15:39.229Z,24.00
2018-11-11T19:18:09.778Z,24.57
2018-11-11T19:20:41.458Z,23.57
2018-11-11T19:23:12.536Z,23.83
2018-11-11T19:25:43.977Z,25.27
2018-11-11T19:28:15.869Z,25.80
2018-11-11T19:30:47.173Z,25.50
2018-11-11T19:33:22.196Z,23.93
2018-11-11T19:35:55.131Z,24.50
2018-11-11T19:38:25.670Z,23.60
2018-11-11T19:40:57.087Z,24.37
2018-11-11T19:43:28.773Z,23.67
2018-11-11T19:46:00.310Z,24.00
2018-11-11T19:48:32.095Z,23.70
2018-11-11T19:51:03.399Z,22.90
2018-11-11T19:53:34.370Z,24.60
2018-11-11T19:56:05.295Z,23.70
2018-11-11T19:58:37.617Z,23.47
2018-11-11T20:01:09.505Z,23.97
2018-11-11T20:10:06.294Z,23.90
2018-11-11T20:12:37.275Z,24.33
2018-11-11T20:15:12.562Z,23.90
2018-11-11T20:17:47.057Z,24.83
2018-11-11T20:20:19.345Z,24.63
2018-11-11T20:22:50.447Z,22.93
2018-11-11T20:25:22.549Z,23.87
2018-11-11T20:27:54.049Z,23.67
2018-11-11T20:30:27.307Z,22.60
2018-11-11T20:32:58.495Z,22.70
2018-11-11T20:35:30.618Z,22.10
2018-11-11T20:38:02.289Z,22.40
2018-11-11T20:40:33.405Z,21.77
2018-11-11T20:43:04.491Z,22.30
2018-11-11T20:45:35.933Z,22.43
2018-11-11T20:48:06.925Z,20.43
2018-11-11T20:50:37.958Z,22.17
2018-11-11T20:53:09.863Z,21.80
2018-11-11T20:55:41.108Z,21.23
2018-11-11T20:58:12.653Z,21.07
2018-11-11T21:00:43.813Z,19.90
2018-11-11T21:03:15.276Z,20.60
2018-11-11T21:05:46.661Z,20.13
2018-11-11T21:08:19.750Z,21.73
2018-11-11T21:10:50.892Z,21.20
2018-11-11T21:13:24.401Z,19.10
2018-11-11T21:15:55.921Z,20.03
2018-11-11T21:18:27.087Z,17.77
2018-11-11T21:20:58.044Z,20.20
2018-11-11T21:23:29.310Z,19.23
2018-11-11T21:26:01.394Z,18.60
2018-11-11T21:28:34.566Z,19.27
2018-11-11T21:31:05.538Z,18.27
2018-11-11T21:33:36.511Z,19.70
2018-11-11T21:36:07.612Z,18.73
2018-11-11T21:38:38.712Z,19.80
2018-11-11T21:41:10.472Z,19.27
2018-11-11T21:43:41.275Z,18.73
2018-11-11T21:46:13.606Z,17.37
2018-11-11T21:48:45.694Z,18.87
2018-11-11T21:51:16.361Z,20.87
2018-11-11T21:53:47.322Z,22.27
2018-11-11T21:56:22.222Z,19.37
2018-11-11T21:58:53.931Z,19.03
2018-11-11T22:01:26.055Z,18.43
2018-11-11T22:04:04.168Z,18.77
2018-11-11T22:06:37.677Z,19.80
2018-11-11T22:09:10.980Z,19.87
2018-11-11T22:11:41.988Z,19.70
2018-11-11T22:14:13.549Z,18.93
2018-11-11T22:16:45.152Z,18.50
2018-11-11T22:19:15.920Z,17.17
2018-11-11T22:21:47.367Z,18.10
2018-11-11T22:24:19.942Z,16.90
2018-11-11T22:26:50.812Z,19.07
2018-11-11T22:29:21.466Z,16.97
2018-11-11T22:31:52.438Z,17.30
2018-11-11T22:34:23.634Z,17.80
2018-11-11T22:36:54.330Z,16.27
2018-11-11T22:39:25.359Z,16.13
2018-11-11T22:41:56.737Z,16.57
2018-11-11T22:44:27.912Z,16.23
2018-11-11T22:46:59.254Z,15.60
2018-11-11T22:49:30.120Z,16.40
2018-11-11T22:52:00.743Z,15.23
2018-11-11T22:54:31.745Z,16.13
2018-11-11T22:57:02.725Z,16.43
2018-11-11T22:59:34.091Z,16.43
2018-11-11T23:02:09.732Z,17.57
2018-11-11T23:04:43.584Z,17.17
2018-11-11T23:07:14.211Z,17.10
2018-11-11T23:09:45.136Z,17.13
2018-11-11T23:12:16.338Z,16.83
2018-11-11T23:14:47.392Z,17.23
2018-11-11T23:17:18.385Z,16.47
2018-11-11T23:19:49.714Z,16.30
2018-11-11T23:22:20.733Z,15.87
2018-11-11T23:24:51.543Z,15.37
2018-11-11T23:27:22.430Z,15.50
2018-11-11T23:29:53.432Z,16.07
2018-11-11T23:32:24.300Z,15.83
2018-11-11T23:34:55.199Z,17.10
2018-11-11T23:37:27.217Z,15.87
2018-11-11T23:39:58.133Z,17.00
2018-11-11T23:42:29.461Z,18.03
2018-11-11T23:45:00.526Z,17.23
2018-11-11T23:47:32.255Z,16.20
2018-11-11T23:50:04.395Z,17.07
2018-11-11T23:52:36.425Z,15.53
2018-11-11T23:55:09.057Z,16.07
2018-11-11T23:57:39.832Z,15.17
